Carlos Rovirosa Pérez International Airport
MMVA : now visible

Airfield :











YOU CAN JOIN US ON...

 
LOGIN :

Register | Disclaimer

   EN    FR    IT 

 









Legend :    VFR   Marginal VFR   IFR   Intensive IFR   Very Intensive IFR
Visi :
Ceiling :
>= 8 km
>= 3000ft
5 to 8 km
1000 to 3000 ft
1500m to 5 km
500 to 1000 ft
800 to 1500m
200 to 500 ft
< 800m
< 200 ft
Symbols :   Thunderstorms  Fog  Heavy snow  Heavy precipitations  Wind > 20 kt






- Airport Elevation : 46 ft
- IATA code : VSA


MMVA - Carlos Rovirosa Pérez International

METAR N/A
TAF TAF MMVA
Valid from the 23 at 06:00 until the 24 at 06:00 UTC


230536Z 2306/2406 04005KT 5SM HZ SCT015
TEMPO 2311/2315 2SM DZ BR BKN010
FM231500 27010KT 5SM HZ SCT015 BKN080
BECMG 2317/2319 SCT015CB
FM232200 09010KT 6SM HZ BKN015CB
PROB40 2322/2402 5SM TSRA
FM240300 00000KT 6SM HZ BKN015
MMFR FIR / North America



MET'MAP, your aeronautical weather chart ! - Copyright ORBIFLY December 2007 - Disclaimer

ORBIFLY MET'MAP TEAM :

Programming & Development : Alexandra Zaïnal
Original concept : Baudouin d'Aumeries
Technical & hardware support : Manuel Goepfert
Assistance : Marc-Olivier Méhu




SOURCES & CREDITS :

   NOAA       Earth
Advisory